createdAt,value
2022-12-25T00:01:24.209Z,97107.25
2022-12-25T00:03:51.170Z,97101.66
2022-12-25T00:06:18.181Z,97094.84
2022-12-25T00:08:44.830Z,97095.72
2022-12-25T00:11:13.264Z,97091.91
2022-12-25T00:13:39.930Z,97090.47
2022-12-25T00:16:08.214Z,97086.34
2022-12-25T00:18:34.857Z,97085.38
2022-12-25T00:21:03.147Z,97079.63
2022-12-25T00:23:29.875Z,97082.50
2022-12-25T00:25:56.485Z,97085.44
2022-12-25T00:28:23.240Z,97083.69
2022-12-25T00:30:50.159Z,97077.72
2022-12-25T00:33:16.831Z,97075.63
2022-12-25T00:35:43.479Z,97068.97
2022-12-25T00:38:10.135Z,97082.50
2022-12-25T00:40:43.456Z,97075.69
2022-12-25T00:43:10.186Z,97074.03
2022-12-25T00:45:36.969Z,97065.19
2022-12-25T00:48:03.616Z,97065.03
2022-12-25T00:50:30.209Z,97065.69
2022-12-25T00:52:56.817Z,97066.75
2022-12-25T00:55:23.421Z,97068.44
2022-12-25T00:57:50.076Z,97061.63
2022-12-25T01:00:16.720Z,97068.34
2022-12-25T01:02:43.554Z,97064.03
2022-12-25T01:05:10.269Z,97069.16
2022-12-25T01:07:36.868Z,97068.16
2022-12-25T01:10:03.783Z,97067.91
2022-12-25T01:12:31.217Z,97068.22
2022-12-25T01:14:57.882Z,97068.34
2022-12-25T01:17:24.500Z,97064.66
2022-12-25T01:19:51.157Z,97056.47
2022-12-25T01:22:17.775Z,97067.63
2022-12-25T01:24:44.486Z,97060.97
2022-12-25T01:27:11.411Z,97071.31
2022-12-25T01:29:38.175Z,97065.44
2022-12-25T01:32:05.196Z,97059.22
2022-12-25T01:34:31.858Z,97064.00
2022-12-25T01:36:58.455Z,97065.78
2022-12-25T01:39:25.119Z,97072.16
2022-12-25T01:41:51.750Z,97063.25
2022-12-25T01:44:18.285Z,97069.06
2022-12-25T01:46:45.135Z,97060.84
2022-12-25T01:49:16.679Z,97062.88
2022-12-25T01:51:53.779Z,97059.38
2022-12-25T01:54:28.307Z,97059.81
2022-12-25T01:56:56.298Z,97056.28
2022-12-25T01:59:23.400Z,97060.47
2022-12-25T02:01:50.102Z,97061.72
2022-12-25T02:04:25.637Z,97064.84
2022-12-25T02:06:52.285Z,97061.41
2022-12-25T02:09:18.910Z,97058.56
2022-12-25T02:11:46.260Z,97064.81
2022-12-25T02:14:12.906Z,97055.69
2022-12-25T02:16:58.074Z,97057.78
2022-12-25T02:19:42.971Z,97066.75
2022-12-25T02:22:34.518Z,97070.28
2022-12-25T02:25:38.316Z,97068.78
2022-12-25T02:28:25.849Z,97052.81
2022-12-25T02:30:55.052Z,97050.78
2022-12-25T02:33:29.180Z,97045.91
2022-12-25T02:35:55.831Z,97043.88
2022-12-25T02:38:31.437Z,97042.44
2022-12-25T02:40:59.096Z,97050.56
2022-12-25T02:43:31.025Z,97048.56
2022-12-25T02:46:03.031Z,97045.22
2022-12-25T02:48:31.985Z,97043.38
2022-12-25T02:50:58.765Z,97041.53
2022-12-25T02:53:25.348Z,97027.75
2022-12-25T02:55:52.054Z,97031.69
2022-12-25T02:58:20.410Z,97030.75
2022-12-25T03:00:48.862Z,97033.41
2022-12-25T03:03:15.507Z,97038.44
2022-12-25T03:05:42.133Z,97027.50
2022-12-25T03:08:11.749Z,97028.16
2022-12-25T03:10:40.009Z,97036.00
2022-12-25T03:13:12.999Z,97028.59
2022-12-25T03:15:39.635Z,97019.53
2022-12-25T03:18:11.994Z,97022.66
2022-12-25T03:20:38.656Z,97023.28
2022-12-25T03:23:05.274Z,97017.88
2022-12-25T03:25:31.923Z,97023.53
2022-12-25T03:27:58.613Z,97012.59
2022-12-25T03:30:48.073Z,97004.53
2022-12-25T03:33:43.733Z,96992.81
2022-12-25T03:36:15.256Z,96999.00
2022-12-25T03:39:06.391Z,96988.06
2022-12-25T03:41:42.947Z,96981.09
2022-12-25T03:44:14.563Z,96987.97
2022-12-25T03:46:46.914Z,96986.69
2022-12-25T03:49:19.541Z,96979.28
2022-12-25T03:51:46.216Z,96984.19
2022-12-25T03:54:12.869Z,96980.72
2022-12-25T03:56:39.545Z,96968.94
2022-12-25T03:59:06.193Z,96969.75
2022-12-25T04:01:32.835Z,96970.00
2022-12-25T04:04:00.488Z,96974.94
2022-12-25T04:06:27.137Z,96974.72
2022-12-25T04:08:53.787Z,96966.28
2022-12-25T04:11:20.434Z,96976.41
2022-12-25T04:13:47.052Z,96977.25
2022-12-25T04:16:13.718Z,96967.97
2022-12-25T04:18:40.377Z,96967.78
2022-12-25T04:21:07.107Z,96973.16
2022-12-25T04:23:33.730Z,96969.47
2022-12-25T04:26:00.365Z,96982.06
2022-12-25T04:28:27.051Z,96976.50
2022-12-25T04:30:53.720Z,96978.16
2022-12-25T04:33:20.358Z,96975.06
2022-12-25T04:35:47.684Z,96971.97
2022-12-25T04:38:14.276Z,96964.16
2022-12-25T04:40:40.882Z,96964.56
2022-12-25T04:43:07.526Z,96966.00
2022-12-25T04:45:34.111Z,96966.88
2022-12-25T04:48:00.777Z,96969.56
2022-12-25T04:50:27.424Z,96969.56
2022-12-25T04:52:54.093Z,96963.78
2022-12-25T04:55:20.703Z,96964.22
2022-12-25T04:57:47.290Z,96965.88
2022-12-25T05:00:14.130Z,96956.63
2022-12-25T05:02:40.971Z,96949.38
2022-12-25T05:05:07.894Z,96950.25
2022-12-25T05:07:34.537Z,96940.97
2022-12-25T05:10:01.184Z,96938.66
2022-12-25T05:12:27.779Z,96940.97
2022-12-25T05:14:54.360Z,96949.59
2022-12-25T05:17:21.000Z,96949.84
2022-12-25T05:19:47.624Z,96952.31
2022-12-25T05:22:14.209Z,96951.53
2022-12-25T05:24:40.836Z,96940.38
2022-12-25T05:27:07.499Z,96946.19
2022-12-25T05:29:34.273Z,96944.94
2022-12-25T05:32:00.920Z,96947.22
2022-12-25T05:34:27.525Z,96956.06
2022-12-25T05:36:54.162Z,96956.47
2022-12-25T05:39:20.812Z,96947.22
2022-12-25T05:41:47.491Z,96950.91
2022-12-25T05:44:14.163Z,96950.31
2022-12-25T05:46:40.858Z,96945.94
2022-12-25T05:49:07.533Z,96955.28
2022-12-25T05:51:34.178Z,96948.25
2022-12-25T05:54:00.765Z,96955.28
2022-12-25T05:56:27.361Z,96957.94
2022-12-25T05:58:54.086Z,96963.50
2022-12-25T06:01:25.008Z,96966.38
2022-12-25T06:03:51.750Z,96968.63
2022-12-25T06:06:18.455Z,96970.91
2022-12-25T06:08:45.101Z,96970.53
2022-12-25T06:11:12.726Z,96962.66
2022-12-25T06:13:39.376Z,96958.97
2022-12-25T06:16:07.242Z,96968.88
2022-12-25T06:18:41.800Z,96965.78
2022-12-25T06:21:11.955Z,96970.91
2022-12-25T06:23:38.790Z,96968.03
2022-12-25T06:26:06.462Z,96975.47
2022-12-25T06:28:33.081Z,96976.69
2022-12-25T06:30:59.672Z,96980.41
2022-12-25T06:33:26.311Z,96980.78
2022-12-25T06:35:52.955Z,96979.13
2022-12-25T06:38:19.574Z,96990.25
2022-12-25T06:40:46.214Z,96983.63
2022-12-25T06:43:12.877Z,96986.50
2022-12-25T06:45:39.498Z,96988.59
2022-12-25T06:48:06.198Z,96993.91
2022-12-25T06:50:32.838Z,97000.09
2022-12-25T06:52:59.440Z,96990.75
2022-12-25T06:55:27.130Z,96990.72
2022-12-25T06:57:53.739Z,96988.44
2022-12-25T07:00:20.413Z,96988.19
2022-12-25T07:02:47.548Z,96990.63
2022-12-25T07:05:14.264Z,96986.28
2022-12-25T07:07:40.918Z,96982.09
2022-12-25T07:10:07.983Z,96984.16
2022-12-25T07:12:34.624Z,96988.25
2022-12-25T07:15:01.230Z,96983.06
2022-12-25T07:17:27.828Z,96987.78
2022-12-25T07:19:54.510Z,96988.16
2022-12-25T07:22:21.175Z,96993.34
2022-12-25T07:24:47.856Z,96991.31
2022-12-25T07:27:14.526Z,96985.09
2022-12-25T07:29:41.116Z,96994.19
2022-12-25T07:32:07.844Z,96996.41
2022-12-25T07:34:34.585Z,96996.81
2022-12-25T07:37:01.265Z,97003.75
2022-12-25T07:39:27.924Z,97009.50
2022-12-25T07:41:54.526Z,97002.88
2022-12-25T07:44:21.163Z,97000.41
2022-12-25T07:46:48.063Z,97004.69
2022-12-25T07:49:14.729Z,97011.28
2022-12-25T07:51:41.368Z,97014.97
2022-12-25T07:54:08.005Z,97016.22
2022-12-25T07:56:34.686Z,97024.81
2022-12-25T07:59:02.513Z,97028.28
2022-12-25T08:01:29.331Z,97033.63
2022-12-25T08:03:58.052Z,97037.28
2022-12-25T08:06:26.397Z,97032.47
2022-12-25T08:08:53.087Z,97034.69
2022-12-25T08:11:19.715Z,97035.69
2022-12-25T08:13:46.395Z,97036.88
2022-12-25T08:16:13.173Z,97039.72
2022-12-25T08:18:40.034Z,97042.81
2022-12-25T08:21:11.183Z,97047.75
2022-12-25T08:23:39.348Z,97039.63
2022-12-25T08:26:06.703Z,97034.84
2022-12-25T08:28:34.618Z,97036.09
2022-12-25T08:31:14.817Z,97044.69
2022-12-25T08:33:41.635Z,97047.34
2022-12-25T08:36:09.446Z,97053.47
2022-12-25T08:38:36.176Z,97057.19
2022-12-25T08:41:02.951Z,97059.69
2022-12-25T08:43:29.609Z,97062.72
2022-12-25T08:45:56.348Z,97062.06
2022-12-25T08:48:23.034Z,97059.97
2022-12-25T08:50:50.152Z,97064.50
2022-12-25T08:53:17.055Z,97057.63
2022-12-25T08:55:43.800Z,97062.13
2022-12-25T08:58:10.434Z,97062.13
2022-12-25T09:00:37.090Z,97066.22
2022-12-25T09:03:04.098Z,97061.78
2022-12-25T09:05:30.802Z,97061.59
2022-12-25T09:07:57.427Z,97048.63
2022-12-25T09:10:24.137Z,97043.97
2022-12-25T09:12:50.780Z,97046.59
2022-12-25T09:15:17.522Z,97049.56
2022-12-25T09:17:44.205Z,97059.81
2022-12-25T09:20:10.896Z,97067.28
2022-12-25T09:22:37.611Z,97062.25
2022-12-25T09:25:04.582Z,97059.50
2022-12-25T09:27:31.212Z,97072.81
2022-12-25T09:29:57.869Z,97067.56
2022-12-25T09:32:24.487Z,97079.97
2022-12-25T09:34:51.143Z,97080.31
2022-12-25T09:37:17.791Z,97077.16
2022-12-25T09:39:46.565Z,97070.47
2022-12-25T09:42:21.232Z,97074.44
2022-12-25T09:44:56.436Z,97069.44
2022-12-25T09:47:27.880Z,97067.47
2022-12-25T09:49:57.022Z,97056.69
2022-12-25T09:52:34.567Z,97048.31
2022-12-25T09:55:20.720Z,97050.75
2022-12-25T09:57:58.596Z,97053.47
2022-12-25T10:00:29.339Z,97058.56
2022-12-25T10:03:19.148Z,97051.22
2022-12-25T10:05:54.683Z,97041.25
2022-12-25T10:08:58.417Z,97038.03
2022-12-25T10:11:24.911Z,97052.09
2022-12-25T10:14:19.287Z,97049.63
2022-12-25T10:17:18.059Z,97041.97
2022-12-25T10:20:05.809Z,97045.50
2022-12-25T10:22:36.132Z,97048.78
2022-12-25T10:25:03.161Z,97045.63
2022-12-25T10:27:34.016Z,97048.09
2022-12-25T10:30:00.625Z,97041.41
2022-12-25T10:32:27.487Z,97035.78
2022-12-25T10:34:54.108Z,97035.13
2022-12-25T10:37:20.749Z,97038.03
2022-12-25T10:39:47.413Z,97037.13
2022-12-25T10:42:35.593Z,97027.63
2022-12-25T10:45:04.928Z,97028.38
2022-12-25T10:47:33.045Z,97032.53
2022-12-25T10:50:00.177Z,97033.97
2022-12-25T10:52:28.311Z,97031.56
2022-12-25T10:54:55.692Z,97026.97
2022-12-25T10:57:23.808Z,97015.19
2022-12-25T10:59:56.076Z,97010.63
2022-12-25T11:02:30.455Z,97014.94
2022-12-25T11:05:08.484Z,96998.13
2022-12-25T11:07:36.004Z,97017.19
2022-12-25T11:10:26.437Z,97020.31
2022-12-25T11:12:53.131Z,97015.63
2022-12-25T11:15:34.624Z,96968.53
2022-12-25T11:18:01.282Z,96962.09
2022-12-25T11:20:27.938Z,96965.28
2022-12-25T11:22:54.629Z,96984.94
2022-12-25T11:25:23.652Z,97008.75
2022-12-25T11:28:00.705Z,97018.41
2022-12-25T11:30:29.203Z,97015.91
2022-12-25T11:32:55.843Z,97015.09
2022-12-25T11:35:24.139Z,97011.91
2022-12-25T11:37:53.991Z,97004.53
2022-12-25T11:40:50.568Z,96992.50
2022-12-25T11:43:35.621Z,96988.78
2022-12-25T11:46:26.406Z,97000.41
2022-12-25T11:49:01.252Z,97000.16
2022-12-25T11:51:35.387Z,96995.53
2022-12-25T11:54:27.631Z,96995.88
2022-12-25T11:56:54.500Z,97005.97
2022-12-25T11:59:27.676Z,97019.00
2022-12-25T12:02:17.645Z,96994.94
2022-12-25T12:04:44.459Z,97000.34
2022-12-25T12:07:25.759Z,96999.53
2022-12-25T12:09:58.432Z,97000.00
2022-12-25T12:12:52.403Z,96995.88
2022-12-25T12:15:26.581Z,96994.50
2022-12-25T12:17:53.186Z,96997.91
2022-12-25T12:20:31.078Z,97001.91
2022-12-25T12:22:57.751Z,96996.72
2022-12-25T12:25:24.353Z,97010.53
2022-12-25T12:28:04.826Z,97012.19
2022-12-25T12:30:35.373Z,97007.75
2022-12-25T12:33:06.055Z,97000.72
2022-12-25T12:35:34.575Z,96991.56
2022-12-25T12:38:05.149Z,96996.00
2022-12-25T12:40:41.063Z,96993.31
2022-12-25T12:43:30.478Z,96992.03
2022-12-25T12:46:08.053Z,96988.81
2022-12-25T12:48:39.876Z,96982.94
2022-12-25T12:51:08.876Z,96991.66
2022-12-25T12:53:35.592Z,96991.78
2022-12-25T12:56:12.653Z,96993.16
2022-12-25T12:58:41.469Z,96977.72
2022-12-25T13:01:11.286Z,96979.34
2022-12-25T13:03:48.717Z,96977.25
2022-12-25T13:06:18.881Z,96987.56
2022-12-25T13:08:58.271Z,96988.25
2022-12-25T13:11:28.717Z,96989.34
2022-12-25T13:13:56.823Z,96988.97
2022-12-25T13:16:29.822Z,96993.91
2022-12-25T13:18:56.529Z,97006.78
2022-12-25T13:21:25.189Z,97000.16
2022-12-25T13:23:59.727Z,97001.47
2022-12-25T13:26:26.397Z,97001.22
2022-12-25T13:28:53.068Z,97008.03
2022-12-25T13:31:20.929Z,97010.59
2022-12-25T13:34:05.133Z,97007.53
2022-12-25T13:36:38.538Z,97001.31
2022-12-25T13:39:07.662Z,97002.69
2022-12-25T13:41:36.937Z,97000.50
2022-12-25T13:44:03.621Z,96995.47
2022-12-25T13:46:30.425Z,97000.28
2022-12-25T13:49:00.416Z,96997.69
2022-12-25T13:51:27.792Z,96991.47
2022-12-25T13:54:05.332Z,96983.50
2022-12-25T13:56:31.953Z,96990.31
2022-12-25T13:58:58.619Z,96987.25
2022-12-25T14:01:25.422Z,96994.75
2022-12-25T14:03:52.164Z,96977.66
2022-12-25T14:06:20.945Z,96989.34
2022-12-25T14:08:47.853Z,96986.25
2022-12-25T14:11:15.567Z,96985.53
2022-12-25T14:13:43.083Z,96982.53
2022-12-25T14:16:10.012Z,96992.28
2022-12-25T14:18:36.709Z,96994.34
2022-12-25T14:21:14.096Z,96993.63
2022-12-25T14:23:47.725Z,96994.25
2022-12-25T14:26:21.361Z,96998.22
2022-12-25T14:28:55.369Z,96996.19
2022-12-25T14:31:22.213Z,97008.13
2022-12-25T14:33:48.945Z,97008.34
2022-12-25T14:36:15.620Z,97007.28
2022-12-25T14:38:42.240Z,97001.53
2022-12-25T14:41:22.624Z,96998.50
2022-12-25T14:43:54.547Z,96997.75
2022-12-25T14:46:25.443Z,96984.75
2022-12-25T14:49:05.778Z,96989.78
2022-12-25T14:51:33.021Z,96995.38
2022-12-25T14:54:01.819Z,96985.44
2022-12-25T14:56:28.684Z,96994.41
2022-12-25T14:58:56.745Z,96986.47
2022-12-25T15:01:37.236Z,96988.56
2022-12-25T15:04:04.706Z,96989.41
2022-12-25T15:06:31.622Z,96984.59
2022-12-25T15:09:03.172Z,96986.25
2022-12-25T15:11:29.948Z,96988.47
2022-12-25T15:13:56.620Z,96987.28
2022-12-25T15:16:27.551Z,96991.66
2022-12-25T15:18:54.256Z,96986.13
2022-12-25T15:21:26.401Z,96978.78
2022-12-25T15:23:56.509Z,96983.38
2022-12-25T15:26:23.194Z,96987.63
2022-12-25T15:28:49.942Z,96983.94
2022-12-25T15:31:20.734Z,96986.66
2022-12-25T15:33:47.795Z,96987.91
2022-12-25T15:36:14.581Z,96975.13
2022-12-25T15:38:41.312Z,96975.88
2022-12-25T15:41:14.778Z,96975.72
2022-12-25T15:43:41.709Z,96965.94
2022-12-25T15:46:08.801Z,96975.91
2022-12-25T15:48:35.473Z,96975.00
2022-12-25T15:51:02.139Z,96975.50
2022-12-25T15:53:28.789Z,96967.44
2022-12-25T15:55:55.457Z,96970.91
2022-12-25T15:58:22.353Z,96971.97
2022-12-25T16:00:50.173Z,96966.06
2022-12-25T16:03:17.048Z,96972.59
2022-12-25T16:05:43.662Z,96978.47
2022-12-25T16:08:10.300Z,96991.88
2022-12-25T16:10:39.163Z,96987.81
2022-12-25T16:13:07.142Z,96984.50
2022-12-25T16:15:33.833Z,96982.56
2022-12-25T16:18:00.509Z,96971.38
2022-12-25T16:20:27.111Z,96974.75
2022-12-25T16:22:53.817Z,96977.25
2022-12-25T16:25:20.445Z,96989.50
2022-12-25T16:27:47.095Z,96983.28
2022-12-25T16:30:15.020Z,96988.66
2022-12-25T16:32:41.780Z,96991.38
2022-12-25T16:35:08.847Z,96995.31
2022-12-25T16:37:35.460Z,96996.56
2022-12-25T16:40:02.064Z,96983.16
2022-12-25T16:42:28.736Z,96988.94
2022-12-25T16:44:55.358Z,96988.03
2022-12-25T16:47:21.965Z,96990.13
2022-12-25T16:49:48.648Z,96992.16
2022-12-25T16:52:15.444Z,96992.97
2022-12-25T16:54:42.104Z,97003.94
2022-12-25T16:57:08.754Z,97013.91
2022-12-25T16:59:35.410Z,97017.59
2022-12-25T17:02:02.232Z,97021.13
2022-12-25T17:04:28.921Z,97021.72
2022-12-25T17:06:55.708Z,97027.94
2022-12-25T17:09:22.329Z,97036.22
2022-12-25T17:11:49.088Z,97048.41
2022-12-25T17:14:15.779Z,97039.75
2022-12-25T17:16:42.567Z,97044.53
2022-12-25T17:19:16.177Z,97036.28
2022-12-25T17:21:42.867Z,97030.13
2022-12-25T17:24:09.726Z,97035.50
2022-12-25T17:26:36.491Z,97028.28
2022-12-25T17:29:03.142Z,97022.34
2022-12-25T17:31:29.845Z,97025.63
2022-12-25T17:33:56.513Z,97028.84
2022-12-25T17:36:23.327Z,97026.88
2022-12-25T17:38:50.038Z,97024.38
2022-12-25T17:41:17.367Z,97030.56
2022-12-25T17:43:43.989Z,97026.47
2022-12-25T17:46:17.895Z,97016.94
2022-12-25T17:48:44.706Z,97012.59
2022-12-25T17:51:14.850Z,97012.81
2022-12-25T17:53:42.626Z,97015.28
2022-12-25T17:56:09.348Z,97020.03
2022-12-25T17:58:36.281Z,97021.09
2022-12-25T18:01:13.506Z,97017.56
2022-12-25T18:03:40.276Z,97021.50
2022-12-25T18:06:08.153Z,97021.72
2022-12-25T18:08:39.263Z,97024.84
2022-12-25T18:11:11.333Z,97024.63
2022-12-25T18:13:37.994Z,97022.78
2022-12-25T18:16:06.346Z,97020.31
2022-12-25T18:18:33.232Z,97020.09
2022-12-25T18:20:59.879Z,97017.84
2022-12-25T18:23:26.519Z,97012.06
2022-12-25T18:25:53.191Z,97009.66
2022-12-25T18:28:19.866Z,97007.56
2022-12-25T18:30:46.486Z,97010.88
2022-12-25T18:33:13.176Z,97013.13
2022-12-25T18:35:40.744Z,97016.03
2022-12-25T18:38:07.409Z,97014.81
2022-12-25T18:40:34.092Z,97016.06
2022-12-25T18:43:03.473Z,97036.06
2022-12-25T18:45:30.502Z,97040.59
2022-12-25T18:47:57.184Z,97036.44
2022-12-25T18:50:23.834Z,97032.31
2022-12-25T18:52:51.907Z,97023.69
2022-12-25T18:55:19.805Z,97022.66
2022-12-25T18:57:46.532Z,97017.13
2022-12-25T19:00:13.488Z,97018.13
2022-12-25T19:02:40.288Z,97021.22
2022-12-25T19:05:07.191Z,97017.94
2022-12-25T19:07:33.925Z,97025.13
2022-12-25T19:10:00.567Z,97035.66
2022-12-25T19:12:27.258Z,97039.75
2022-12-25T19:14:53.993Z,97042.66
2022-12-25T19:17:20.673Z,97037.53
2022-12-25T19:19:47.372Z,97037.53
2022-12-25T19:22:14.049Z,97038.75
2022-12-25T19:24:40.746Z,97043.66
2022-12-25T19:27:07.342Z,97046.16
2022-12-25T19:29:34.146Z,97053.97
2022-12-25T19:32:00.908Z,97061.59
2022-12-25T19:34:27.595Z,97056.25
2022-12-25T19:36:54.223Z,97040.59
2022-12-25T19:39:20.863Z,97048.81
2022-12-25T19:41:47.840Z,97048.81
2022-12-25T19:44:14.513Z,97062.25
2022-12-25T19:46:41.314Z,97068.41
2022-12-25T19:49:10.142Z,97061.00
2022-12-25T19:51:38.407Z,97064.50
2022-12-25T19:54:05.433Z,97074.59
2022-12-25T19:56:32.164Z,97072.94
2022-12-25T19:58:58.975Z,97074.38
2022-12-25T20:01:26.664Z,97070.25
2022-12-25T20:03:53.382Z,97071.47
2022-12-25T20:06:27.996Z,97074.97
2022-12-25T20:08:55.925Z,97076.66
2022-12-25T20:11:23.189Z,97078.94
2022-12-25T20:13:49.850Z,97087.38
2022-12-25T20:16:16.575Z,97084.47
2022-12-25T20:18:43.238Z,97096.22
2022-12-25T20:21:17.435Z,97100.53
2022-12-25T20:23:44.582Z,97107.13
2022-12-25T20:26:11.677Z,97110.03
2022-12-25T20:28:38.949Z,97120.31
2022-12-25T20:31:10.162Z,97116.38
2022-12-25T20:33:36.785Z,97130.00
2022-12-25T20:36:03.687Z,97132.47
2022-12-25T20:38:30.357Z,97128.16
2022-12-25T20:43:51.976Z,97140.09
2022-12-25T20:46:18.731Z,97139.03
2022-12-25T20:48:45.388Z,97141.47
2022-12-25T20:51:16.479Z,97162.91
2022-12-25T20:53:43.363Z,97143.56
2022-12-25T20:56:11.400Z,97158.53
2022-12-25T20:58:38.115Z,97164.56
2022-12-25T21:01:06.141Z,97163.91
2022-12-25T21:03:33.239Z,97169.13
2022-12-25T21:05:59.947Z,97175.69
2022-12-25T21:08:27.220Z,97166.63
2022-12-25T21:10:54.928Z,97171.94
2022-12-25T21:13:23.087Z,97168.03
2022-12-25T21:15:50.525Z,97178.81
2022-12-25T21:18:18.065Z,97177.09
2022-12-25T21:20:49.964Z,97175.28
2022-12-25T21:23:16.695Z,97190.53
2022-12-25T21:25:43.349Z,97193.88
2022-12-25T21:28:09.988Z,97195.09
2022-12-25T21:30:36.689Z,97194.50
2022-12-25T21:33:03.451Z,97199.69
2022-12-25T21:35:30.350Z,97200.94
2022-12-25T21:37:56.957Z,97194.34
2022-12-25T21:40:23.582Z,97200.13
2022-12-25T21:42:51.579Z,97211.69
2022-12-25T21:45:18.195Z,97211.25
2022-12-25T21:48:01.928Z,97217.63
2022-12-25T21:50:33.543Z,97216.38
2022-12-25T21:53:02.697Z,97215.31
2022-12-25T21:55:29.328Z,97215.38
2022-12-25T21:57:56.038Z,97224.63
2022-12-25T22:00:22.651Z,97223.41
2022-12-25T22:02:49.351Z,97224.38
2022-12-25T22:05:16.146Z,97221.13
2022-12-25T22:07:42.825Z,97234.06
2022-12-25T22:10:09.564Z,97234.28
2022-12-25T22:12:36.233Z,97233.22
2022-12-25T22:15:04.997Z,97246.47
2022-12-25T22:17:44.541Z,97242.53
2022-12-25T22:20:14.420Z,97231.34
2022-12-25T22:22:41.049Z,97233.00
2022-12-25T22:25:07.860Z,97240.66
2022-12-25T22:27:36.157Z,97255.94
2022-12-25T22:30:02.980Z,97253.03
2022-12-25T22:32:29.650Z,97256.75
2022-12-25T22:34:56.311Z,97260.03
2022-12-25T22:37:22.943Z,97265.59
2022-12-25T22:39:49.675Z,97263.94
2022-12-25T22:42:16.357Z,97275.50
2022-12-25T22:44:42.992Z,97267.22
2022-12-25T22:47:09.680Z,97277.09
2022-12-25T22:49:36.494Z,97265.09
2022-12-25T22:52:03.092Z,97268.84
2022-12-25T22:54:30.426Z,97274.41
2022-12-25T22:56:57.122Z,97275.88
2022-12-25T22:59:23.750Z,97281.66
2022-12-25T23:01:50.573Z,97280.41
2022-12-25T23:04:17.285Z,97277.28
2022-12-25T23:06:43.913Z,97273.06
2022-12-25T23:09:17.465Z,97283.41
2022-12-25T23:11:47.128Z,97286.28
2022-12-25T23:14:13.790Z,97289.44
2022-12-25T23:16:40.447Z,97287.63
2022-12-25T23:19:07.042Z,97299.19
2022-12-25T23:21:33.644Z,97301.69
2022-12-25T23:24:00.277Z,97299.38
2022-12-25T23:26:26.882Z,97294.69
2022-12-25T23:28:53.512Z,97296.97
2022-12-25T23:31:20.952Z,97298.59
2022-12-25T23:33:47.659Z,97296.53
2022-12-25T23:36:14.257Z,97303.34
2022-12-25T23:38:40.932Z,97313.84
2022-12-25T23:41:07.588Z,97312.81
2022-12-25T23:43:34.211Z,97311.97
2022-12-25T23:46:00.865Z,97307.97
2022-12-25T23:48:27.564Z,97308.66
2022-12-25T23:50:54.250Z,97311.53
2022-12-25T23:53:20.859Z,97295.69
2022-12-25T23:55:53.350Z,97295.69
2022-12-25T23:58:22.069Z,97295.16
